createdAt,value
2023-02-03T00:00:27.893Z,12.42
2023-02-03T00:02:55.186Z,12.43
2023-02-03T00:05:21.809Z,12.43
2023-02-03T00:07:48.225Z,12.45
2023-02-03T00:10:14.863Z,12.43
2023-02-03T00:12:41.652Z,12.43
2023-02-03T00:15:08.543Z,12.43
2023-02-03T00:17:35.008Z,12.41
2023-02-03T00:20:01.590Z,12.40
2023-02-03T00:22:28.146Z,12.41
2023-02-03T00:24:54.632Z,12.40
2023-02-03T00:27:21.118Z,12.40
2023-02-03T00:29:47.760Z,12.38
2023-02-03T00:32:14.398Z,12.38
2023-02-03T00:34:41.395Z,12.39
2023-02-03T00:37:08.354Z,12.38
2023-02-03T00:39:35.497Z,12.37
2023-02-03T00:42:01.984Z,12.38
2023-02-03T00:44:28.499Z,12.38
2023-02-03T00:46:55.082Z,12.37
2023-02-03T00:49:21.522Z,12.37
2023-02-03T00:51:48.013Z,12.39
2023-02-03T00:54:14.918Z,12.39
2023-02-03T00:56:41.451Z,12.39
2023-02-03T00:59:08.051Z,12.39
2023-02-03T01:01:35.184Z,12.37
2023-02-03T01:04:02.287Z,12.37
2023-02-03T01:06:28.754Z,12.37
2023-02-03T01:08:55.958Z,12.36
2023-02-03T01:11:22.456Z,12.36
2023-02-03T01:13:49.389Z,12.35
2023-02-03T01:16:15.939Z,12.36
2023-02-03T01:18:42.840Z,12.35
2023-02-03T01:21:09.286Z,12.36
2023-02-03T01:23:35.810Z,12.35
2023-02-03T01:26:02.346Z,12.34
2023-02-03T01:28:28.804Z,12.34
2023-02-03T01:30:55.474Z,12.33
2023-02-03T01:33:22.140Z,12.34
2023-02-03T01:35:48.688Z,12.34
2023-02-03T01:38:16.171Z,12.32
2023-02-03T01:40:42.980Z,12.33
2023-02-03T01:43:09.940Z,12.31
2023-02-03T01:45:36.472Z,12.32
2023-02-03T01:48:03.213Z,12.32
2023-02-03T01:50:29.756Z,12.31
2023-02-03T01:52:56.298Z,12.31
2023-02-03T01:55:22.828Z,12.31
2023-02-03T01:57:49.766Z,12.32
2023-02-03T02:00:16.230Z,12.30
2023-02-03T02:02:42.772Z,12.30
2023-02-03T02:05:10.090Z,12.28
2023-02-03T02:07:36.785Z,12.29
2023-02-03T02:10:03.368Z,12.29
2023-02-03T02:12:30.525Z,12.29
2023-02-03T02:14:57.075Z,12.28
2023-02-03T02:17:23.885Z,12.29
2023-02-03T02:19:50.368Z,12.28
2023-02-03T02:22:16.827Z,12.29
2023-02-03T02:24:43.432Z,12.29
2023-02-03T02:27:09.891Z,12.28
2023-02-03T02:29:36.428Z,12.28
2023-02-03T02:32:02.999Z,12.26
2023-02-03T02:34:29.447Z,12.26
2023-02-03T02:36:55.959Z,12.26
2023-02-03T02:39:22.503Z,12.26
2023-02-03T02:41:49.156Z,12.26
2023-02-03T02:44:15.829Z,12.26
2023-02-03T02:46:42.328Z,12.24
2023-02-03T02:49:08.732Z,12.26
2023-02-03T02:51:35.265Z,12.25
2023-02-03T02:54:01.766Z,12.25
2023-02-03T02:56:28.356Z,12.25
2023-02-03T02:58:54.713Z,12.23
2023-02-03T03:01:21.377Z,12.23
2023-02-03T03:03:48.219Z,12.23
2023-02-03T03:06:15.085Z,12.23
2023-02-03T03:08:41.609Z,12.25
2023-02-03T03:11:08.119Z,12.22
2023-02-03T03:13:34.679Z,12.23
2023-02-03T03:16:01.276Z,12.22
2023-02-03T03:18:28.028Z,12.22
2023-02-03T03:20:54.597Z,12.22
2023-02-03T03:23:21.153Z,12.22
2023-02-03T03:25:47.892Z,12.20
2023-02-03T03:28:15.067Z,12.21
2023-02-03T03:30:41.833Z,12.20
2023-02-03T03:33:08.382Z,12.20
2023-02-03T03:35:35.345Z,12.19
2023-02-03T03:38:02.292Z,12.20
2023-02-03T03:40:29.003Z,12.20
2023-02-03T03:42:55.485Z,12.19
2023-02-03T03:45:21.972Z,12.20
2023-02-03T03:47:48.623Z,12.20
2023-02-03T03:50:15.348Z,12.20
2023-02-03T03:52:41.741Z,12.21
2023-02-03T03:55:08.180Z,12.19
2023-02-03T03:57:34.647Z,12.20
2023-02-03T04:00:01.031Z,12.20
2023-02-03T04:02:28.078Z,12.19
2023-02-03T04:04:54.546Z,12.18
2023-02-03T04:07:20.965Z,12.20
2023-02-03T04:09:47.396Z,12.19
2023-02-03T04:12:13.736Z,12.19
2023-02-03T04:14:40.017Z,12.18
2023-02-03T04:17:06.553Z,12.18
2023-02-03T04:19:33.707Z,12.16
2023-02-03T04:22:00.301Z,12.18
2023-02-03T04:24:27.321Z,12.17
2023-02-03T04:26:53.692Z,12.17
2023-02-03T04:29:20.130Z,12.17
2023-02-03T04:31:46.670Z,12.16
2023-02-03T04:34:13.121Z,12.16
2023-02-03T04:36:39.627Z,12.16
2023-02-03T04:39:06.269Z,12.15
2023-02-03T04:41:32.908Z,12.15
2023-02-03T04:43:59.336Z,12.14
2023-02-03T04:46:25.787Z,12.15
2023-02-03T04:48:52.330Z,12.14
2023-02-03T04:51:18.721Z,12.14
2023-02-03T04:53:45.468Z,12.16
2023-02-03T04:56:12.899Z,12.15
2023-02-03T04:58:39.260Z,12.13
2023-02-03T05:01:05.794Z,12.16
2023-02-03T05:03:32.643Z,12.14
2023-02-03T05:05:59.073Z,12.13
2023-02-03T05:08:25.727Z,12.14
2023-02-03T05:10:52.158Z,12.13
2023-02-03T05:13:18.595Z,12.11
2023-02-03T05:15:45.774Z,12.14
2023-02-03T05:18:12.259Z,12.12
2023-02-03T05:20:38.621Z,12.12
2023-02-03T05:23:05.024Z,12.11
2023-02-03T05:25:31.794Z,12.13
2023-02-03T05:27:58.393Z,12.12
2023-02-03T05:30:24.876Z,12.13
2023-02-03T05:32:51.337Z,12.11
2023-02-03T05:35:17.699Z,12.11
2023-02-03T05:37:44.205Z,12.11
2023-02-03T05:40:11.267Z,12.11
2023-02-03T05:42:37.699Z,12.09
2023-02-03T05:45:04.119Z,12.11
2023-02-03T05:47:30.888Z,12.09
2023-02-03T05:49:57.251Z,12.09
2023-02-03T05:52:23.704Z,12.08
2023-02-03T05:54:50.021Z,12.09
2023-02-03T05:57:17.009Z,12.08
2023-02-03T05:59:43.340Z,12.08
2023-02-03T06:02:09.716Z,12.08
2023-02-03T06:04:36.155Z,12.07
2023-02-03T06:07:02.563Z,12.06
2023-02-03T06:09:29.100Z,12.06
2023-02-03T06:11:55.485Z,12.05
2023-02-03T06:14:21.944Z,12.06
2023-02-03T06:16:48.402Z,12.06
2023-02-03T06:19:16.348Z,12.05
2023-02-03T06:21:43.115Z,12.05
2023-02-03T06:24:09.669Z,12.04
2023-02-03T06:26:36.012Z,12.05
2023-02-03T06:29:02.580Z,12.05
2023-02-03T06:31:29.102Z,12.04
2023-02-03T06:33:55.639Z,12.04
2023-02-03T06:36:22.091Z,12.03
2023-02-03T06:38:48.561Z,12.05
2023-02-03T06:41:14.884Z,12.03
2023-02-03T06:43:41.458Z,12.04
2023-02-03T06:46:08.343Z,12.04
2023-02-03T06:48:34.787Z,12.03
2023-02-03T06:51:01.343Z,12.02
2023-02-03T06:53:27.889Z,12.03
2023-02-03T06:55:54.371Z,12.01
2023-02-03T06:58:21.065Z,12.01
2023-02-03T07:00:47.407Z,12.00
2023-02-03T07:03:13.832Z,12.02
2023-02-03T07:05:40.559Z,12.01
2023-02-03T07:08:07.092Z,12.02
2023-02-03T07:10:33.422Z,12.00
2023-02-03T07:13:00.113Z,12.00
2023-02-03T07:15:26.541Z,12.00
2023-02-03T07:17:53.299Z,11.99
2023-02-03T07:20:19.932Z,11.99
2023-02-03T07:22:46.317Z,11.98
2023-02-03T07:25:12.692Z,11.97
2023-02-03T07:27:39.492Z,11.97
2023-02-03T07:30:06.470Z,11.97
2023-02-03T07:32:33.954Z,11.96
2023-02-03T07:35:00.414Z,11.96
2023-02-03T07:37:27.092Z,11.97
2023-02-03T07:39:53.477Z,11.96
2023-02-03T07:42:19.932Z,11.96
2023-02-03T07:44:46.529Z,11.97
2023-02-03T07:47:12.945Z,11.97
2023-02-03T07:49:39.633Z,11.97
2023-02-03T07:52:06.059Z,11.96
2023-02-03T07:54:32.442Z,11.96
2023-02-03T07:56:58.843Z,11.96
2023-02-03T07:59:25.381Z,11.97
2023-02-03T08:01:51.930Z,11.97
2023-02-03T08:04:18.464Z,11.96
2023-02-03T08:06:45.097Z,11.97
2023-02-03T08:09:11.602Z,11.98
2023-02-03T08:11:38.640Z,12.00
2023-02-03T08:14:05.610Z,11.98
2023-02-03T08:16:32.250Z,11.98
2023-02-03T08:18:58.853Z,12.00
2023-02-03T08:21:25.501Z,11.98
2023-02-03T08:23:51.922Z,11.97
2023-02-03T08:26:18.422Z,11.97
2023-02-03T08:28:44.951Z,11.99
2023-02-03T08:31:11.657Z,12.00
2023-02-03T08:33:38.682Z,11.99
2023-02-03T08:36:05.431Z,11.99
2023-02-03T08:38:32.072Z,11.98
2023-02-03T08:40:58.601Z,11.99
2023-02-03T08:43:25.072Z,11.98
2023-02-03T08:45:51.699Z,11.96
2023-02-03T08:48:18.353Z,11.97
2023-02-03T08:50:44.848Z,11.95
2023-02-03T08:53:11.377Z,11.93
2023-02-03T08:55:38.181Z,11.93
2023-02-03T08:58:08.232Z,11.94
2023-02-03T09:00:34.982Z,11.93
2023-02-03T09:03:01.496Z,11.91
2023-02-03T09:05:28.046Z,11.93
2023-02-03T09:07:54.513Z,11.94
2023-02-03T09:10:20.993Z,11.94
2023-02-03T09:12:47.431Z,11.92
2023-02-03T09:15:13.825Z,11.94
2023-02-03T09:17:40.330Z,11.94
2023-02-03T09:20:06.955Z,11.94
2023-02-03T09:22:33.479Z,11.95
2023-02-03T09:24:59.924Z,11.95
2023-02-03T09:27:26.582Z,11.96
2023-02-03T09:29:53.098Z,11.95
2023-02-03T09:32:19.549Z,11.96
2023-02-03T09:34:46.077Z,11.97
2023-02-03T09:37:12.646Z,11.95
2023-02-03T09:39:39.896Z,11.97
2023-02-03T09:42:06.598Z,11.97
2023-02-03T09:44:33.323Z,11.97
2023-02-03T09:46:59.701Z,11.96
2023-02-03T09:49:26.289Z,11.95
2023-02-03T09:51:52.696Z,11.94
2023-02-03T09:54:19.657Z,11.96
2023-02-03T09:56:46.687Z,11.93
2023-02-03T09:59:13.319Z,11.95
2023-02-03T10:01:40.046Z,11.95
2023-02-03T10:04:06.564Z,11.96
2023-02-03T10:06:33.254Z,11.96
2023-02-03T10:08:59.759Z,11.95
2023-02-03T10:11:26.213Z,11.96
2023-02-03T10:13:52.727Z,11.98
2023-02-03T10:16:19.895Z,11.98
2023-02-03T10:18:46.511Z,11.98
2023-02-03T10:21:12.922Z,11.98
2023-02-03T10:23:39.281Z,12.00
2023-02-03T10:26:06.018Z,11.98
2023-02-03T10:28:32.846Z,12.00
2023-02-03T10:30:59.534Z,11.96
2023-02-03T10:33:26.192Z,12.00
2023-02-03T10:35:52.648Z,11.98
2023-02-03T10:38:19.701Z,11.97
2023-02-03T10:40:46.139Z,11.97
2023-02-03T10:43:12.691Z,11.98
2023-02-03T10:45:39.301Z,11.96
2023-02-03T10:48:05.984Z,11.98
2023-02-03T10:50:32.411Z,11.98
2023-02-03T10:52:58.890Z,11.95
2023-02-03T10:55:25.363Z,11.95
2023-02-03T10:57:51.851Z,11.96
2023-02-03T11:00:20.045Z,11.96
2023-02-03T11:02:47.799Z,11.94
2023-02-03T11:05:14.551Z,11.96
2023-02-03T11:07:41.055Z,11.93
2023-02-03T11:10:07.676Z,11.95
2023-02-03T11:12:34.416Z,11.94
2023-02-03T11:15:01.385Z,11.94
2023-02-03T11:17:28.201Z,11.94
2023-02-03T11:19:55.051Z,11.95
2023-02-03T11:22:22.023Z,11.95
2023-02-03T11:24:48.641Z,11.94
2023-02-03T11:27:15.533Z,11.95
2023-02-03T11:29:42.289Z,11.96
2023-02-03T11:32:08.914Z,11.97
2023-02-03T11:34:35.318Z,11.96
2023-02-03T11:37:01.873Z,11.95
2023-02-03T11:39:28.448Z,11.97
2023-02-03T11:41:54.875Z,11.97
2023-02-03T11:44:21.543Z,11.93
2023-02-03T11:46:50.909Z,11.93
2023-02-03T11:49:17.391Z,11.92
2023-02-03T11:51:43.779Z,11.90
2023-02-03T11:54:10.681Z,11.90
2023-02-03T11:56:37.089Z,11.90
2023-02-03T11:59:03.596Z,11.89
2023-02-03T12:01:30.073Z,11.89
2023-02-03T12:03:56.600Z,11.89
2023-02-03T12:06:22.995Z,11.90
2023-02-03T12:08:49.651Z,11.90
2023-02-03T12:11:17.552Z,11.88
2023-02-03T12:13:44.057Z,11.90
2023-02-03T12:16:10.647Z,11.88
2023-02-03T12:18:37.452Z,11.87
2023-02-03T12:21:03.929Z,11.87
2023-02-03T12:23:30.333Z,11.87
2023-02-03T12:25:57.017Z,11.87
2023-02-03T12:28:32.920Z,11.87
2023-02-03T12:30:59.566Z,11.88
2023-02-03T12:33:26.120Z,11.86
2023-02-03T12:35:52.821Z,11.87
2023-02-03T12:38:19.273Z,11.86
2023-02-03T12:40:47.249Z,11.87
2023-02-03T12:43:15.321Z,11.86
2023-02-03T12:45:41.789Z,11.86
2023-02-03T12:48:08.640Z,11.86
2023-02-03T12:50:35.097Z,11.86
2023-02-03T12:53:01.625Z,11.86
2023-02-03T12:55:28.090Z,11.88
2023-02-03T12:57:55.048Z,11.85
2023-02-03T13:00:21.566Z,11.86
2023-02-03T13:02:48.207Z,11.87
2023-02-03T13:05:14.707Z,11.87
2023-02-03T13:07:41.344Z,11.87
2023-02-03T13:10:07.806Z,11.86
2023-02-03T13:12:34.343Z,11.86
2023-02-03T13:15:00.875Z,11.85
2023-02-03T13:17:27.374Z,11.86
2023-02-03T13:19:53.883Z,11.86
2023-02-03T13:22:20.483Z,11.86
2023-02-03T13:24:47.114Z,11.85
2023-02-03T13:27:14.321Z,11.86
2023-02-03T13:29:40.643Z,11.86
2023-02-03T13:32:07.529Z,11.86
2023-02-03T13:34:36.670Z,11.86
2023-02-03T13:37:03.642Z,11.87
2023-02-03T13:39:30.078Z,11.87
2023-02-03T13:41:56.664Z,11.88
2023-02-03T13:44:23.281Z,11.89
2023-02-03T13:46:49.598Z,11.90
2023-02-03T13:49:16.009Z,11.89
2023-02-03T13:51:42.482Z,11.88
2023-02-03T13:54:08.904Z,11.88
2023-02-03T13:56:35.224Z,11.87
2023-02-03T13:59:01.800Z,11.87
2023-02-03T14:01:28.161Z,11.87
2023-02-03T14:03:54.695Z,11.88
2023-02-03T14:06:21.442Z,11.87
2023-02-03T14:08:47.957Z,11.87
2023-02-03T14:11:14.397Z,11.87
2023-02-03T14:13:41.249Z,11.88
2023-02-03T14:16:07.939Z,11.89
2023-02-03T14:18:34.400Z,11.88
2023-02-03T14:21:01.139Z,11.88
2023-02-03T14:23:28.061Z,11.86
2023-02-03T14:25:54.638Z,11.86
2023-02-03T14:28:21.170Z,11.86
2023-02-03T14:30:48.045Z,11.87
2023-02-03T14:33:14.655Z,11.86
2023-02-03T14:35:41.028Z,11.86
2023-02-03T14:38:07.913Z,11.86
2023-02-03T14:40:34.239Z,11.86
2023-02-03T14:43:09.724Z,11.85
2023-02-03T14:45:36.743Z,11.85
2023-02-03T14:48:03.107Z,11.85
2023-02-03T14:50:29.421Z,11.86
2023-02-03T14:52:56.135Z,11.85
2023-02-03T14:55:23.117Z,11.85
2023-02-03T14:57:49.696Z,11.85
2023-02-03T15:00:16.559Z,11.85
2023-02-03T15:02:42.982Z,11.84
2023-02-03T15:05:09.545Z,11.86
2023-02-03T15:07:36.013Z,11.84
2023-02-03T15:10:02.465Z,11.85
2023-02-03T15:12:28.833Z,11.85
2023-02-03T15:14:55.627Z,11.85
2023-02-03T15:17:22.000Z,11.84
2023-02-03T15:19:48.384Z,11.85
2023-02-03T15:22:14.869Z,11.86
2023-02-03T15:24:41.637Z,11.86
2023-02-03T15:27:08.036Z,11.86
2023-02-03T15:29:34.378Z,11.86
2023-02-03T15:32:00.784Z,11.87
2023-02-03T15:34:27.931Z,11.87
2023-02-03T15:36:54.259Z,11.85
2023-02-03T15:39:21.051Z,11.85
2023-02-03T15:41:47.443Z,11.86
2023-02-03T15:44:14.122Z,11.87
2023-02-03T15:46:40.856Z,11.86
2023-02-03T15:49:07.564Z,11.87
2023-02-03T15:51:33.920Z,11.86
2023-02-03T15:54:00.352Z,11.87
2023-02-03T15:56:26.656Z,11.88
2023-02-03T15:58:52.995Z,11.88
2023-02-03T16:01:19.375Z,11.87
2023-02-03T16:03:46.060Z,11.88
2023-02-03T16:06:12.465Z,11.88
2023-02-03T16:08:38.827Z,11.87
2023-02-03T16:11:05.363Z,11.87
2023-02-03T16:13:31.706Z,11.88
2023-02-03T16:15:58.207Z,11.88
2023-02-03T16:18:24.652Z,11.86
2023-02-03T16:20:51.349Z,11.86
2023-02-03T16:23:18.029Z,11.86
2023-02-03T16:25:44.693Z,11.86
2023-02-03T16:28:11.108Z,11.86
2023-02-03T16:30:37.505Z,11.87
2023-02-03T16:33:04.204Z,11.88
2023-02-03T16:35:31.153Z,11.88
2023-02-03T16:37:57.741Z,11.89
2023-02-03T16:40:24.385Z,11.89
2023-02-03T16:42:51.000Z,11.87
2023-02-03T16:45:17.651Z,11.89
2023-02-03T16:47:44.273Z,11.87
2023-02-03T16:50:10.688Z,11.87
2023-02-03T16:52:37.101Z,11.87
2023-02-03T16:55:03.538Z,11.88
2023-02-03T16:57:29.964Z,11.87
2023-02-03T16:59:56.303Z,11.89
2023-02-03T17:02:22.738Z,11.87
2023-02-03T17:04:49.102Z,11.88
2023-02-03T17:07:15.431Z,11.87
2023-02-03T17:09:41.968Z,11.87
2023-02-03T17:12:08.293Z,11.87
2023-02-03T17:14:34.608Z,11.86
2023-02-03T17:17:01.092Z,11.87
2023-02-03T17:19:27.504Z,11.87
2023-02-03T17:21:53.922Z,11.86
2023-02-03T17:24:20.408Z,11.87
2023-02-03T17:26:47.186Z,11.87
2023-02-03T17:29:13.515Z,11.86
2023-02-03T17:31:39.964Z,11.85
2023-02-03T17:34:06.405Z,11.86
2023-02-03T17:36:32.829Z,11.86
2023-02-03T17:55:23.311Z,11.85
2023-02-03T17:57:49.633Z,11.84
2023-02-03T18:00:16.900Z,11.85
2023-02-03T18:02:43.380Z,11.86
2023-02-03T18:05:09.809Z,11.87
2023-02-03T18:07:36.154Z,11.85
2023-02-03T18:10:02.568Z,11.85
2023-02-03T18:12:28.938Z,11.86
2023-02-03T18:14:57.103Z,11.86
2023-02-03T18:17:24.130Z,11.86
2023-02-03T18:19:55.697Z,11.84
2023-02-03T18:22:23.050Z,11.85
2023-02-03T18:24:49.413Z,11.85
2023-02-03T18:27:15.883Z,11.84
2023-02-03T18:29:42.180Z,11.84
2023-02-03T18:32:08.777Z,11.84
2023-02-03T18:34:35.186Z,11.84
2023-02-03T18:37:01.556Z,11.84
2023-02-03T18:39:28.150Z,11.84
2023-02-03T18:41:54.509Z,11.84
2023-02-03T18:44:21.369Z,11.83
2023-02-03T18:46:47.780Z,11.84
2023-02-03T18:49:14.114Z,11.83
2023-02-03T18:51:40.617Z,11.83
2023-02-03T18:54:07.516Z,11.83
2023-02-03T18:56:33.808Z,11.83
2023-02-03T18:59:00.241Z,11.81
2023-02-03T19:01:26.826Z,11.83
2023-02-03T19:03:53.353Z,11.85
2023-02-03T19:06:19.839Z,11.83
2023-02-03T19:08:46.178Z,11.84
2023-02-03T19:11:12.563Z,11.83
2023-02-03T19:13:38.943Z,11.82
2023-02-03T19:16:05.376Z,11.81
2023-02-03T19:18:32.304Z,11.84
2023-02-03T19:20:58.916Z,11.83
2023-02-03T19:23:26.070Z,11.83
2023-02-03T19:25:52.460Z,11.83
2023-02-03T19:28:29.965Z,11.84
2023-02-03T19:31:00.116Z,11.82
2023-02-03T19:33:29.342Z,11.82
2023-02-03T19:35:55.703Z,11.81
2023-02-03T19:38:22.033Z,11.82
2023-02-03T19:40:49.015Z,11.82
2023-02-03T19:43:15.879Z,11.83
2023-02-03T19:45:42.642Z,11.86
2023-02-03T19:48:09.021Z,11.83
2023-02-03T19:50:35.368Z,11.82
2023-02-03T19:53:01.939Z,11.83
2023-02-03T19:55:28.316Z,11.82
2023-02-03T19:57:55.226Z,11.82
2023-02-03T20:00:21.573Z,11.81
2023-02-03T20:02:47.847Z,11.82
2023-02-03T20:05:14.257Z,11.82
2023-02-03T20:07:40.865Z,11.83
2023-02-03T20:10:07.159Z,11.81
2023-02-03T20:12:33.466Z,11.82
2023-02-03T20:14:59.858Z,11.81
2023-02-03T20:17:26.158Z,11.82
2023-02-03T20:19:52.661Z,11.81
2023-02-03T20:22:19.534Z,11.82
2023-02-03T20:24:46.364Z,11.82
2023-02-03T20:27:12.857Z,11.82
2023-02-03T20:29:40.140Z,11.82
2023-02-03T20:32:06.643Z,11.81
2023-02-03T20:34:33.075Z,11.81
2023-02-03T20:36:59.527Z,11.81
2023-02-03T20:39:26.026Z,11.82
2023-02-03T20:41:52.392Z,11.80
2023-02-03T20:44:19.322Z,11.81
2023-02-03T20:46:46.093Z,11.82
2023-02-03T20:49:12.610Z,11.80
2023-02-03T20:51:39.211Z,11.80
2023-02-03T20:54:05.599Z,11.81
2023-02-03T20:56:31.984Z,11.80
2023-02-03T20:58:58.468Z,11.79
2023-02-03T21:01:25.142Z,11.79
2023-02-03T21:03:51.672Z,11.79
2023-02-03T21:06:18.061Z,11.80
2023-02-03T21:08:44.466Z,11.79
2023-02-03T21:11:11.080Z,11.80
2023-02-03T21:13:37.901Z,11.81
2023-02-03T21:16:04.525Z,11.80
2023-02-03T21:18:31.054Z,11.78
2023-02-03T21:20:57.565Z,11.80
2023-02-03T21:23:24.077Z,11.79
2023-02-03T21:25:50.392Z,11.80
2023-02-03T21:28:17.197Z,11.80
2023-02-03T21:30:43.650Z,11.79
2023-02-03T21:33:10.091Z,11.79
2023-02-03T21:35:36.493Z,11.79
2023-02-03T21:38:03.423Z,11.79
2023-02-03T21:40:30.050Z,11.78
2023-02-03T21:42:56.618Z,11.79
2023-02-03T21:45:23.202Z,11.78
2023-02-03T21:47:49.520Z,11.79
2023-02-03T21:50:15.880Z,11.79
2023-02-03T21:52:42.390Z,11.80
2023-02-03T21:55:09.284Z,11.80
2023-02-03T21:57:35.946Z,11.81
2023-02-03T22:00:02.290Z,11.86
2023-02-03T22:02:28.771Z,11.86
2023-02-03T22:04:56.137Z,11.83
2023-02-03T22:07:22.589Z,11.82
2023-02-03T22:09:49.163Z,11.81
2023-02-03T22:12:15.441Z,11.78
2023-02-03T22:14:42.136Z,11.84
2023-02-03T22:17:08.665Z,11.86
2023-02-03T22:19:35.098Z,11.84
2023-02-03T22:22:01.769Z,11.84
2023-02-03T22:24:28.368Z,11.83
2023-02-03T22:26:54.681Z,11.83
2023-02-03T22:29:21.290Z,11.83
2023-02-03T22:31:47.773Z,11.84
2023-02-03T22:34:14.176Z,11.84
2023-02-03T22:36:41.164Z,11.84
2023-02-03T22:39:07.444Z,11.84
2023-02-03T22:41:33.800Z,11.85
2023-02-03T22:44:00.176Z,11.83
2023-02-03T22:46:27.000Z,11.82
2023-02-03T22:48:53.530Z,11.80
2023-02-03T22:51:20.035Z,11.80
2023-02-03T22:53:46.872Z,11.79
2023-02-03T22:56:13.293Z,11.79
2023-02-03T22:58:39.762Z,11.82
2023-02-03T23:01:06.209Z,11.79
2023-02-03T23:03:33.081Z,11.78
2023-02-03T23:05:59.601Z,11.78
2023-02-03T23:08:26.155Z,11.79
2023-02-03T23:10:53.099Z,11.79
2023-02-03T23:13:19.474Z,11.80
2023-02-03T23:15:45.988Z,11.80
2023-02-03T23:18:13.554Z,11.79
2023-02-03T23:20:40.029Z,11.82
2023-02-03T23:23:06.973Z,11.79
2023-02-03T23:25:34.166Z,11.81
2023-02-03T23:28:00.610Z,11.81
2023-02-03T23:30:27.091Z,11.82
2023-02-03T23:32:53.492Z,11.82
2023-02-03T23:35:19.828Z,11.80
2023-02-03T23:37:46.334Z,11.80
2023-02-03T23:40:12.972Z,11.79
2023-02-03T23:42:39.348Z,11.79
2023-02-03T23:45:05.813Z,11.78
2023-02-03T23:47:32.142Z,11.83
2023-02-03T23:49:58.505Z,11.83
2023-02-03T23:52:24.889Z,11.79
2023-02-03T23:54:51.623Z,11.80
2023-02-03T23:57:17.951Z,11.82
2023-02-03T23:59:44.288Z,11.80
